sensor_id;sensor_type;location;lat;lon;timestamp;P1;durP1;ratioP1;P2;durP2;ratioP2
13816;SDS011;6979;52.116;5.286;2023-07-31T00:00:23;1.80;;;1.70;;
13816;SDS011;6979;52.116;5.286;2023-07-31T00:02:51;2.10;;;2.00;;
13816;SDS011;6979;52.116;5.286;2023-07-31T00:05:19;2.00;;;1.90;;
13816;SDS011;6979;52.116;5.286;2023-07-31T00:07:46;2.10;;;1.90;;
13816;SDS011;6979;52.116;5.286;2023-07-31T00:10:15;2.30;;;2.20;;
13816;SDS011;6979;52.116;5.286;2023-07-31T00:12:42;2.20;;;2.10;;
13816;SDS011;6979;52.116;5.286;2023-07-31T00:15:11;2.37;;;2.23;;
13816;SDS011;6979;52.116;5.286;2023-07-31T00:17:39;3.00;;;2.80;;
13816;SDS011;6979;52.116;5.286;2023-07-31T00:20:06;2.70;;;2.50;;
13816;SDS011;6979;52.116;5.286;2023-07-31T00:22:33;4.10;;;3.70;;
13816;SDS011;6979;52.116;5.286;2023-07-31T00:25:01;4.13;;;3.50;;
13816;SDS011;6979;52.116;5.286;2023-07-31T00:27:30;4.40;;;3.40;;
13816;SDS011;6979;52.116;5.286;2023-07-31T00:29:57;5.90;;;4.00;;
13816;SDS011;6979;52.116;5.286;2023-07-31T00:32:24;7.83;;;4.40;;
13816;SDS011;6979;52.116;5.286;2023-07-31T00:34:51;8.17;;;4.60;;
13816;SDS011;6979;52.116;5.286;2023-07-31T00:37:18;9.60;;;4.70;;
13816;SDS011;6979;52.116;5.286;2023-07-31T00:39:48;10.23;;;5.60;;
13816;SDS011;6979;52.116;5.286;2023-07-31T00:42:15;13.17;;;6.40;;
13816;SDS011;6979;52.116;5.286;2023-07-31T00:44:43;10.67;;;6.67;;
13816;SDS011;6979;52.116;5.286;2023-07-31T00:47:14;16.50;;;6.77;;
13816;SDS011;6979;52.116;5.286;2023-07-31T00:49:41;11.87;;;6.93;;
13816;SDS011;6979;52.116;5.286;2023-07-31T00:52:08;13.93;;;7.57;;
13816;SDS011;6979;52.116;5.286;2023-07-31T00:54:36;13.30;;;7.63;;
13816;SDS011;6979;52.116;5.286;2023-07-31T00:57:05;17.63;;;8.20;;
13816;SDS011;6979;52.116;5.286;2023-07-31T00:59:33;13.00;;;7.00;;
13816;SDS011;6979;52.116;5.286;2023-07-31T01:02:03;13.33;;;7.90;;
13816;SDS011;6979;52.116;5.286;2023-07-31T01:04:31;11.87;;;7.73;;
13816;SDS011;6979;52.116;5.286;2023-07-31T01:07:00;13.93;;;7.07;;
13816;SDS011;6979;52.116;5.286;2023-07-31T01:09:33;12.57;;;7.47;;
13816;SDS011;6979;52.116;5.286;2023-07-31T01:12:07;10.60;;;6.30;;
13816;SDS011;6979;52.116;5.286;2023-07-31T01:14:35;11.70;;;6.20;;
13816;SDS011;6979;52.116;5.286;2023-07-31T01:17:03;11.10;;;5.60;;
13816;SDS011;6979;52.116;5.286;2023-07-31T01:19:31;7.23;;;5.13;;
13816;SDS011;6979;52.116;5.286;2023-07-31T01:22:16;6.00;;;4.40;;
13816;SDS011;6979;52.116;5.286;2023-07-31T01:24:59;9.10;;;4.67;;
13816;SDS011;6979;52.116;5.286;2023-07-31T01:27:40;16.07;;;7.57;;
13816;SDS011;6979;52.116;5.286;2023-07-31T01:30:15;11.07;;;6.80;;
13816;SDS011;6979;52.116;5.286;2023-07-31T01:32:47;13.63;;;8.27;;
13816;SDS011;6979;52.116;5.286;2023-07-31T01:35:17;12.07;;;7.57;;
13816;SDS011;6979;52.116;5.286;2023-07-31T01:37:44;13.90;;;6.23;;
13816;SDS011;6979;52.116;5.286;2023-07-31T01:40:12;14.30;;;7.70;;
13816;SDS011;6979;52.116;5.286;2023-07-31T01:42:40;12.13;;;6.33;;
13816;SDS011;6979;52.116;5.286;2023-07-31T01:45:13;12.40;;;7.27;;
13816;SDS011;6979;52.116;5.286;2023-07-31T01:47:40;15.07;;;7.20;;
13816;SDS011;6979;52.116;5.286;2023-07-31T01:50:08;15.03;;;7.67;;
13816;SDS011;6979;52.116;5.286;2023-07-31T01:52:35;13.50;;;9.00;;
13816;SDS011;6979;52.116;5.286;2023-07-31T01:55:03;12.60;;;6.90;;
13816;SDS011;6979;52.116;5.286;2023-07-31T01:57:30;11.60;;;7.47;;
13816;SDS011;6979;52.116;5.286;2023-07-31T02:00:04;13.93;;;7.83;;
13816;SDS011;6979;52.116;5.286;2023-07-31T02:02:37;9.63;;;6.27;;
13816;SDS011;6979;52.116;5.286;2023-07-31T02:05:06;11.00;;;6.13;;
13816;SDS011;6979;52.116;5.286;2023-07-31T02:07:36;12.33;;;7.23;;
13816;SDS011;6979;52.116;5.286;2023-07-31T02:10:03;9.27;;;6.10;;
13816;SDS011;6979;52.116;5.286;2023-07-31T02:12:31;13.40;;;6.57;;
13816;SDS011;6979;52.116;5.286;2023-07-31T02:14:58;12.37;;;6.17;;
13816;SDS011;6979;52.116;5.286;2023-07-31T02:17:27;11.13;;;6.50;;
13816;SDS011;6979;52.116;5.286;2023-07-31T02:19:54;7.50;;;5.83;;
13816;SDS011;6979;52.116;5.286;2023-07-31T02:22:21;12.70;;;6.93;;
13816;SDS011;6979;52.116;5.286;2023-07-31T02:24:48;13.23;;;7.03;;
13816;SDS011;6979;52.116;5.286;2023-07-31T02:27:15;11.13;;;6.57;;
13816;SDS011;6979;52.116;5.286;2023-07-31T02:29:42;12.53;;;6.70;;
13816;SDS011;6979;52.116;5.286;2023-07-31T02:32:09;9.97;;;5.93;;
13816;SDS011;6979;52.116;5.286;2023-07-31T02:34:37;11.03;;;6.03;;
13816;SDS011;6979;52.116;5.286;2023-07-31T02:37:04;8.80;;;5.97;;
13816;SDS011;6979;52.116;5.286;2023-07-31T02:39:32;10.30;;;5.70;;
13816;SDS011;6979;52.116;5.286;2023-07-31T02:41:59;11.23;;;6.70;;
13816;SDS011;6979;52.116;5.286;2023-07-31T02:44:26;10.10;;;5.37;;
13816;SDS011;6979;52.116;5.286;2023-07-31T02:46:53;12.20;;;6.37;;
13816;SDS011;6979;52.116;5.286;2023-07-31T02:49:20;11.37;;;6.53;;
13816;SDS011;6979;52.116;5.286;2023-07-31T02:51:49;12.83;;;7.37;;
13816;SDS011;6979;52.116;5.286;2023-07-31T02:54:16;11.97;;;6.77;;
13816;SDS011;6979;52.116;5.286;2023-07-31T02:56:43;15.53;;;7.20;;
13816;SDS011;6979;52.116;5.286;2023-07-31T02:59:09;13.97;;;7.57;;
13816;SDS011;6979;52.116;5.286;2023-07-31T03:01:36;16.93;;;8.43;;
13816;SDS011;6979;52.116;5.286;2023-07-31T03:04:04;16.70;;;7.47;;
13816;SDS011;6979;52.116;5.286;2023-07-31T03:06:31;13.47;;;7.70;;
13816;SDS011;6979;52.116;5.286;2023-07-31T03:08:59;16.33;;;7.47;;
13816;SDS011;6979;52.116;5.286;2023-07-31T03:11:27;13.53;;;7.23;;
13816;SDS011;6979;52.116;5.286;2023-07-31T03:13:55;16.10;;;9.17;;
13816;SDS011;6979;52.116;5.286;2023-07-31T03:16:22;14.77;;;6.97;;
13816;SDS011;6979;52.116;5.286;2023-07-31T03:18:49;19.47;;;8.10;;
13816;SDS011;6979;52.116;5.286;2023-07-31T03:21:16;13.33;;;8.50;;
13816;SDS011;6979;52.116;5.286;2023-07-31T03:23:43;16.23;;;7.80;;
13816;SDS011;6979;52.116;5.286;2023-07-31T03:26:11;17.57;;;8.97;;
13816;SDS011;6979;52.116;5.286;2023-07-31T03:28:38;14.40;;;8.17;;
13816;SDS011;6979;52.116;5.286;2023-07-31T03:31:05;12.63;;;8.27;;
13816;SDS011;6979;52.116;5.286;2023-07-31T03:33:33;15.27;;;8.30;;
13816;SDS011;6979;52.116;5.286;2023-07-31T03:36:00;18.27;;;9.50;;
13816;SDS011;6979;52.116;5.286;2023-07-31T03:38:29;13.20;;;7.90;;
13816;SDS011;6979;52.116;5.286;2023-07-31T03:40:56;15.23;;;7.60;;
13816;SDS011;6979;52.116;5.286;2023-07-31T03:43:28;14.37;;;8.73;;
13816;SDS011;6979;52.116;5.286;2023-07-31T03:45:58;15.07;;;8.73;;
13816;SDS011;6979;52.116;5.286;2023-07-31T03:48:27;13.87;;;7.83;;
13816;SDS011;6979;52.116;5.286;2023-07-31T03:50:55;17.17;;;8.70;;
13816;SDS011;6979;52.116;5.286;2023-07-31T03:53:22;13.37;;;7.40;;
13816;SDS011;6979;52.116;5.286;2023-07-31T03:55:49;9.77;;;7.53;;
13816;SDS011;6979;52.116;5.286;2023-07-31T03:58:16;11.53;;;7.77;;
13816;SDS011;6979;52.116;5.286;2023-07-31T04:00:45;14.30;;;7.70;;
13816;SDS011;6979;52.116;5.286;2023-07-31T04:03:12;13.07;;;7.83;;
13816;SDS011;6979;52.116;5.286;2023-07-31T04:05:39;13.27;;;8.43;;
13816;SDS011;6979;52.116;5.286;2023-07-31T04:08:06;12.80;;;7.97;;
13816;SDS011;6979;52.116;5.286;2023-07-31T04:10:32;13.33;;;7.67;;
13816;SDS011;6979;52.116;5.286;2023-07-31T04:12:59;9.10;;;6.57;;
13816;SDS011;6979;52.116;5.286;2023-07-31T04:15:29;13.20;;;7.77;;
13816;SDS011;6979;52.116;5.286;2023-07-31T04:17:58;10.67;;;7.53;;
13816;SDS011;6979;52.116;5.286;2023-07-31T04:20:25;13.33;;;8.07;;
13816;SDS011;6979;52.116;5.286;2023-07-31T04:22:51;20.03;;;9.30;;
13816;SDS011;6979;52.116;5.286;2023-07-31T04:25:21;15.53;;;8.97;;
13816;SDS011;6979;52.116;5.286;2023-07-31T04:27:48;14.30;;;8.10;;
13816;SDS011;6979;52.116;5.286;2023-07-31T04:30:15;12.30;;;8.37;;
13816;SDS011;6979;52.116;5.286;2023-07-31T04:32:42;16.43;;;8.53;;
13816;SDS011;6979;52.116;5.286;2023-07-31T04:35:10;17.43;;;8.73;;
13816;SDS011;6979;52.116;5.286;2023-07-31T04:37:37;12.77;;;7.43;;
13816;SDS011;6979;52.116;5.286;2023-07-31T04:40:05;10.37;;;7.43;;
13816;SDS011;6979;52.116;5.286;2023-07-31T04:42:33;14.50;;;7.50;;
13816;SDS011;6979;52.116;5.286;2023-07-31T04:45:00;12.33;;;7.30;;
13816;SDS011;6979;52.116;5.286;2023-07-31T04:47:27;9.87;;;7.40;;
13816;SDS011;6979;52.116;5.286;2023-07-31T04:49:54;10.50;;;6.37;;
13816;SDS011;6979;52.116;5.286;2023-07-31T04:52:23;12.87;;;7.83;;
13816;SDS011;6979;52.116;5.286;2023-07-31T04:54:50;11.83;;;6.90;;
13816;SDS011;6979;52.116;5.286;2023-07-31T04:57:16;11.60;;;7.07;;
13816;SDS011;6979;52.116;5.286;2023-07-31T04:59:43;7.70;;;6.77;;
13816;SDS011;6979;52.116;5.286;2023-07-31T05:02:11;11.37;;;6.63;;
13816;SDS011;6979;52.116;5.286;2023-07-31T05:04:38;10.93;;;7.70;;
13816;SDS011;6979;52.116;5.286;2023-07-31T05:07:05;10.30;;;7.10;;
13816;SDS011;6979;52.116;5.286;2023-07-31T05:09:34;10.23;;;6.47;;
13816;SDS011;6979;52.116;5.286;2023-07-31T05:12:04;8.10;;;6.60;;
13816;SDS011;6979;52.116;5.286;2023-07-31T05:14:32;8.13;;;6.93;;
13816;SDS011;6979;52.116;5.286;2023-07-31T05:17:01;7.87;;;5.87;;
13816;SDS011;6979;52.116;5.286;2023-07-31T05:19:28;7.63;;;5.57;;
13816;SDS011;6979;52.116;5.286;2023-07-31T05:21:55;6.57;;;4.93;;
13816;SDS011;6979;52.116;5.286;2023-07-31T05:24:22;6.87;;;5.53;;
13816;SDS011;6979;52.116;5.286;2023-07-31T05:26:50;8.23;;;5.00;;
13816;SDS011;6979;52.116;5.286;2023-07-31T05:29:17;8.37;;;5.73;;
13816;SDS011;6979;52.116;5.286;2023-07-31T05:31:44;8.30;;;5.60;;
13816;SDS011;6979;52.116;5.286;2023-07-31T05:34:11;5.37;;;4.87;;
13816;SDS011;6979;52.116;5.286;2023-07-31T05:36:38;6.10;;;5.50;;
13816;SDS011;6979;52.116;5.286;2023-07-31T05:39:05;5.77;;;3.90;;
13816;SDS011;6979;52.116;5.286;2023-07-31T05:41:34;5.43;;;4.93;;
13816;SDS011;6979;52.116;5.286;2023-07-31T05:44:03;5.83;;;4.97;;
13816;SDS011;6979;52.116;5.286;2023-07-31T05:46:30;5.20;;;4.47;;
13816;SDS011;6979;52.116;5.286;2023-07-31T05:48:57;5.27;;;4.43;;
13816;SDS011;6979;52.116;5.286;2023-07-31T05:51:26;5.27;;;4.63;;
13816;SDS011;6979;52.116;5.286;2023-07-31T05:53:55;5.50;;;5.00;;
13816;SDS011;6979;52.116;5.286;2023-07-31T05:56:22;6.07;;;5.47;;
13816;SDS011;6979;52.116;5.286;2023-07-31T05:58:49;5.80;;;4.77;;
13816;SDS011;6979;52.116;5.286;2023-07-31T06:01:17;9.37;;;5.47;;
13816;SDS011;6979;52.116;5.286;2023-07-31T06:03:46;5.87;;;5.23;;
13816;SDS011;6979;52.116;5.286;2023-07-31T06:06:13;7.00;;;5.87;;
13816;SDS011;6979;52.116;5.286;2023-07-31T06:08:40;6.13;;;5.27;;
13816;SDS011;6979;52.116;5.286;2023-07-31T06:11:07;6.47;;;4.93;;
13816;SDS011;6979;52.116;5.286;2023-07-31T06:13:34;7.80;;;6.00;;
13816;SDS011;6979;52.116;5.286;2023-07-31T06:16:01;6.03;;;5.43;;
13816;SDS011;6979;52.116;5.286;2023-07-31T06:18:31;5.03;;;4.63;;
13816;SDS011;6979;52.116;5.286;2023-07-31T06:20:59;6.90;;;5.83;;
13816;SDS011;6979;52.116;5.286;2023-07-31T06:23:26;7.23;;;5.50;;
13816;SDS011;6979;52.116;5.286;2023-07-31T06:25:53;7.53;;;5.33;;
13816;SDS011;6979;52.116;5.286;2023-07-31T06:28:20;5.30;;;4.80;;
13816;SDS011;6979;52.116;5.286;2023-07-31T06:30:46;5.40;;;4.90;;
13816;SDS011;6979;52.116;5.286;2023-07-31T06:33:13;5.10;;;4.70;;
13816;SDS011;6979;52.116;5.286;2023-07-31T06:35:42;5.30;;;4.80;;
13816;SDS011;6979;52.116;5.286;2023-07-31T06:38:09;6.00;;;4.90;;
13816;SDS011;6979;52.116;5.286;2023-07-31T06:40:36;6.00;;;4.17;;
13816;SDS011;6979;52.116;5.286;2023-07-31T06:43:03;6.03;;;4.47;;
13816;SDS011;6979;52.116;5.286;2023-07-31T06:45:33;4.23;;;3.83;;
13816;SDS011;6979;52.116;5.286;2023-07-31T06:48:00;4.97;;;4.57;;
13816;SDS011;6979;52.116;5.286;2023-07-31T06:50:27;4.50;;;4.10;;
13816;SDS011;6979;52.116;5.286;2023-07-31T06:52:56;5.50;;;4.17;;
13816;SDS011;6979;52.116;5.286;2023-07-31T06:55:23;3.47;;;3.27;;
13816;SDS011;6979;52.116;5.286;2023-07-31T06:57:51;3.97;;;3.40;;
13816;SDS011;6979;52.116;5.286;2023-07-31T07:00:20;3.87;;;3.50;;
13816;SDS011;6979;52.116;5.286;2023-07-31T07:02:48;4.47;;;4.07;;
13816;SDS011;6979;52.116;5.286;2023-07-31T07:05:16;3.97;;;3.60;;
13816;SDS011;6979;52.116;5.286;2023-07-31T07:07:43;3.63;;;3.33;;
13816;SDS011;6979;52.116;5.286;2023-07-31T07:10:12;4.73;;;4.27;;
13816;SDS011;6979;52.116;5.286;2023-07-31T07:12:41;4.73;;;3.80;;
13816;SDS011;6979;52.116;5.286;2023-07-31T07:15:08;3.97;;;3.53;;
13816;SDS011;6979;52.116;5.286;2023-07-31T07:17:35;4.40;;;3.63;;
13816;SDS011;6979;52.116;5.286;2023-07-31T07:20:04;4.20;;;3.90;;
13816;SDS011;6979;52.116;5.286;2023-07-31T07:22:33;4.67;;;3.43;;
13816;SDS011;6979;52.116;5.286;2023-07-31T07:25:00;5.40;;;4.23;;
13816;SDS011;6979;52.116;5.286;2023-07-31T07:27:29;4.30;;;3.90;;
13816;SDS011;6979;52.116;5.286;2023-07-31T07:29:56;4.53;;;3.23;;
13816;SDS011;6979;52.116;5.286;2023-07-31T07:32:26;4.57;;;3.87;;
13816;SDS011;6979;52.116;5.286;2023-07-31T07:34:53;5.70;;;4.10;;
13816;SDS011;6979;52.116;5.286;2023-07-31T07:37:21;4.00;;;3.70;;
13816;SDS011;6979;52.116;5.286;2023-07-31T07:39:50;4.20;;;3.37;;
13816;SDS011;6979;52.116;5.286;2023-07-31T07:42:17;5.10;;;3.60;;
13816;SDS011;6979;52.116;5.286;2023-07-31T07:44:45;3.63;;;3.33;;
13816;SDS011;6979;52.116;5.286;2023-07-31T07:47:15;4.30;;;3.23;;
13816;SDS011;6979;52.116;5.286;2023-07-31T07:49:42;2.83;;;2.63;;
13816;SDS011;6979;52.116;5.286;2023-07-31T07:52:12;2.90;;;2.70;;
13816;SDS011;6979;52.116;5.286;2023-07-31T07:54:41;3.40;;;3.10;;
13816;SDS011;6979;52.116;5.286;2023-07-31T07:57:08;2.97;;;2.77;;
13816;SDS011;6979;52.116;5.286;2023-07-31T07:59:35;3.27;;;2.80;;
13816;SDS011;6979;52.116;5.286;2023-07-31T08:02:04;2.73;;;2.50;;
13816;SDS011;6979;52.116;5.286;2023-07-31T08:04:31;2.67;;;2.47;;
13816;SDS011;6979;52.116;5.286;2023-07-31T08:07:00;2.70;;;2.50;;
13816;SDS011;6979;52.116;5.286;2023-07-31T08:09:27;2.50;;;2.30;;
13816;SDS011;6979;52.116;5.286;2023-07-31T08:11:54;2.80;;;2.60;;
13816;SDS011;6979;52.116;5.286;2023-07-31T08:14:26;2.83;;;2.57;;
13816;SDS011;6979;52.116;5.286;2023-07-31T08:16:53;2.50;;;2.30;;
13816;SDS011;6979;52.116;5.286;2023-07-31T08:19:22;2.37;;;2.27;;
13816;SDS011;6979;52.116;5.286;2023-07-31T08:21:49;3.60;;;2.40;;
13816;SDS011;6979;52.116;5.286;2023-07-31T08:24:16;2.30;;;2.10;;
13816;SDS011;6979;52.116;5.286;2023-07-31T08:26:42;2.40;;;2.20;;
13816;SDS011;6979;52.116;5.286;2023-07-31T08:29:09;2.00;;;1.90;;
13816;SDS011;6979;52.116;5.286;2023-07-31T08:31:36;2.70;;;2.20;;
13816;SDS011;6979;52.116;5.286;2023-07-31T08:34:04;3.20;;;2.33;;
13816;SDS011;6979;52.116;5.286;2023-07-31T08:36:32;2.27;;;2.10;;
13816;SDS011;6979;52.116;5.286;2023-07-31T08:38:59;2.87;;;2.27;;
13816;SDS011;6979;52.116;5.286;2023-07-31T08:41:26;2.20;;;2.00;;
13816;SDS011;6979;52.116;5.286;2023-07-31T08:43:53;3.57;;;2.17;;
13816;SDS011;6979;52.116;5.286;2023-07-31T08:46:23;2.33;;;2.23;;
13816;SDS011;6979;52.116;5.286;2023-07-31T08:48:50;2.00;;;1.90;;
13816;SDS011;6979;52.116;5.286;2023-07-31T08:51:19;2.10;;;1.90;;
13816;SDS011;6979;52.116;5.286;2023-07-31T08:53:48;2.27;;;2.07;;
13816;SDS011;6979;52.116;5.286;2023-07-31T08:56:15;2.00;;;1.90;;
13816;SDS011;6979;52.116;5.286;2023-07-31T08:58:43;2.17;;;1.97;;
13816;SDS011;6979;52.116;5.286;2023-07-31T09:01:11;1.93;;;1.83;;
13816;SDS011;6979;52.116;5.286;2023-07-31T09:03:39;1.80;;;1.70;;
13816;SDS011;6979;52.116;5.286;2023-07-31T09:06:08;1.87;;;1.77;;
13816;SDS011;6979;52.116;5.286;2023-07-31T09:08:35;2.20;;;1.83;;
13816;SDS011;6979;52.116;5.286;2023-07-31T09:11:08;2.60;;;2.40;;
13816;SDS011;6979;52.116;5.286;2023-07-31T09:13:35;2.10;;;2.00;;
13816;SDS011;6979;52.116;5.286;2023-07-31T09:16:08;2.40;;;2.20;;
13816;SDS011;6979;52.116;5.286;2023-07-31T09:18:41;2.20;;;2.10;;
13816;SDS011;6979;52.116;5.286;2023-07-31T09:21:19;1.80;;;1.80;;
13816;SDS011;6979;52.116;5.286;2023-07-31T09:23:47;2.73;;;2.50;;
13816;SDS011;6979;52.116;5.286;2023-07-31T09:28:58;2.43;;;2.33;;
13816;SDS011;6979;52.116;5.286;2023-07-31T09:31:32;2.90;;;2.70;;
13816;SDS011;6979;52.116;5.286;2023-07-31T09:34:04;2.83;;;2.63;;
13816;SDS011;6979;52.116;5.286;2023-07-31T09:36:31;3.17;;;2.97;;
13816;SDS011;6979;52.116;5.286;2023-07-31T09:39:01;3.33;;;3.13;;
13816;SDS011;6979;52.116;5.286;2023-07-31T09:41:29;3.50;;;3.30;;
13816;SDS011;6979;52.116;5.286;2023-07-31T09:44:02;2.93;;;2.83;;
13816;SDS011;6979;52.116;5.286;2023-07-31T09:46:30;2.80;;;2.70;;
13816;SDS011;6979;52.116;5.286;2023-07-31T09:49:03;3.20;;;3.00;;
13816;SDS011;6979;52.116;5.286;2023-07-31T09:51:31;3.40;;;3.10;;
13816;SDS011;6979;52.116;5.286;2023-07-31T09:54:03;2.97;;;2.77;;
13816;SDS011;6979;52.116;5.286;2023-07-31T09:56:41;3.40;;;3.10;;
13816;SDS011;6979;52.116;5.286;2023-07-31T09:59:12;3.23;;;3.03;;
13816;SDS011;6979;52.116;5.286;2023-07-31T10:01:40;2.77;;;2.67;;
13816;SDS011;6979;52.116;5.286;2023-07-31T10:04:08;3.03;;;2.90;;
13816;SDS011;6979;52.116;5.286;2023-07-31T10:06:36;2.90;;;2.70;;
13816;SDS011;6979;52.116;5.286;2023-07-31T10:09:06;3.13;;;2.93;;
13816;SDS011;6979;52.116;5.286;2023-07-31T10:11:37;3.43;;;3.20;;
13816;SDS011;6979;52.116;5.286;2023-07-31T10:14:09;3.47;;;3.27;;
13816;SDS011;6979;52.116;5.286;2023-07-31T10:16:38;3.67;;;3.47;;
13816;SDS011;6979;52.116;5.286;2023-07-31T10:19:06;4.70;;;4.20;;
13816;SDS011;6979;52.116;5.286;2023-07-31T10:21:34;4.17;;;3.97;;
13816;SDS011;6979;52.116;5.286;2023-07-31T10:24:03;5.17;;;4.80;;
13816;SDS011;6979;52.116;5.286;2023-07-31T10:26:31;5.10;;;4.67;;
13816;SDS011;6979;52.116;5.286;2023-07-31T10:28:59;5.23;;;4.73;;
13816;SDS011;6979;52.116;5.286;2023-07-31T10:31:26;4.80;;;4.50;;
13816;SDS011;6979;52.116;5.286;2023-07-31T10:33:55;5.87;;;5.50;;
13816;SDS011;6979;52.116;5.286;2023-07-31T10:36:28;5.07;;;4.77;;
13816;SDS011;6979;52.116;5.286;2023-07-31T10:38:56;6.70;;;6.23;;
13816;SDS011;6979;52.116;5.286;2023-07-31T10:41:32;6.20;;;5.70;;
13816;SDS011;6979;52.116;5.286;2023-07-31T10:44:03;6.17;;;5.70;;
13816;SDS011;6979;52.116;5.286;2023-07-31T10:46:33;5.17;;;4.87;;
13816;SDS011;6979;52.116;5.286;2023-07-31T10:49:02;5.80;;;5.40;;
13816;SDS011;6979;52.116;5.286;2023-07-31T10:51:32;5.23;;;4.83;;
13816;SDS011;6979;52.116;5.286;2023-07-31T10:54:10;5.63;;;5.23;;
13816;SDS011;6979;52.116;5.286;2023-07-31T10:56:37;5.57;;;5.07;;
13816;SDS011;6979;52.116;5.286;2023-07-31T10:59:13;4.47;;;4.17;;
13816;SDS011;6979;52.116;5.286;2023-07-31T11:01:51;4.60;;;4.20;;
13816;SDS011;6979;52.116;5.286;2023-07-31T11:04:24;3.90;;;3.60;;
13816;SDS011;6979;52.116;5.286;2023-07-31T11:06:55;3.87;;;3.60;;
13816;SDS011;6979;52.116;5.286;2023-07-31T11:09:24;3.37;;;3.17;;
13816;SDS011;6979;52.116;5.286;2023-07-31T11:11:53;3.07;;;2.87;;
13816;SDS011;6979;52.116;5.286;2023-07-31T11:14:23;3.50;;;3.30;;
13816;SDS011;6979;52.116;5.286;2023-07-31T11:16:51;3.03;;;2.83;;
13816;SDS011;6979;52.116;5.286;2023-07-31T11:19:21;3.00;;;2.80;;
13816;SDS011;6979;52.116;5.286;2023-07-31T11:21:50;3.17;;;2.97;;
13816;SDS011;6979;52.116;5.286;2023-07-31T11:24:19;2.53;;;2.37;;
13816;SDS011;6979;52.116;5.286;2023-07-31T11:26:49;2.70;;;2.50;;
13816;SDS011;6979;52.116;5.286;2023-07-31T11:29:17;2.60;;;2.40;;
13816;SDS011;6979;52.116;5.286;2023-07-31T11:31:44;3.70;;;3.40;;
13816;SDS011;6979;52.116;5.286;2023-07-31T11:34:12;2.73;;;2.53;;
13816;SDS011;6979;52.116;5.286;2023-07-31T11:36:42;2.50;;;2.40;;
13816;SDS011;6979;52.116;5.286;2023-07-31T11:39:19;2.47;;;2.37;;
13816;SDS011;6979;52.116;5.286;2023-07-31T11:41:46;3.50;;;3.23;;
13816;SDS011;6979;52.116;5.286;2023-07-31T11:44:13;3.50;;;3.30;;
13816;SDS011;6979;52.116;5.286;2023-07-31T11:46:43;4.27;;;3.97;;
13816;SDS011;6979;52.116;5.286;2023-07-31T11:49:11;4.00;;;3.70;;
13816;SDS011;6979;52.116;5.286;2023-07-31T11:51:38;3.80;;;3.60;;
13816;SDS011;6979;52.116;5.286;2023-07-31T11:54:13;4.57;;;4.27;;
13816;SDS011;6979;52.116;5.286;2023-07-31T11:56:40;4.63;;;4.27;;
13816;SDS011;6979;52.116;5.286;2023-07-31T11:59:07;4.50;;;4.27;;
13816;SDS011;6979;52.116;5.286;2023-07-31T12:01:34;5.33;;;4.93;;
13816;SDS011;6979;52.116;5.286;2023-07-31T12:04:01;4.80;;;4.40;;
13816;SDS011;6979;52.116;5.286;2023-07-31T12:06:34;4.40;;;4.10;;
13816;SDS011;6979;52.116;5.286;2023-07-31T12:09:03;5.33;;;4.60;;
13816;SDS011;6979;52.116;5.286;2023-07-31T12:11:32;4.00;;;3.63;;
13816;SDS011;6979;52.116;5.286;2023-07-31T12:14:11;4.40;;;4.10;;
13816;SDS011;6979;52.116;5.286;2023-07-31T12:16:48;3.83;;;3.63;;
13816;SDS011;6979;52.116;5.286;2023-07-31T12:19:20;4.13;;;3.93;;
13816;SDS011;6979;52.116;5.286;2023-07-31T12:21:47;3.90;;;3.70;;
13816;SDS011;6979;52.116;5.286;2023-07-31T12:24:17;4.20;;;3.90;;
13816;SDS011;6979;52.116;5.286;2023-07-31T12:26:46;3.37;;;3.17;;
13816;SDS011;6979;52.116;5.286;2023-07-31T12:29:14;3.80;;;3.60;;
13816;SDS011;6979;52.116;5.286;2023-07-31T12:31:41;3.40;;;3.20;;
13816;SDS011;6979;52.116;5.286;2023-07-31T12:34:15;3.00;;;2.90;;
13816;SDS011;6979;52.116;5.286;2023-07-31T12:36:51;3.70;;;3.40;;
13816;SDS011;6979;52.116;5.286;2023-07-31T12:39:22;3.90;;;3.70;;
13816;SDS011;6979;52.116;5.286;2023-07-31T12:41:51;3.90;;;3.60;;
13816;SDS011;6979;52.116;5.286;2023-07-31T12:44:18;3.80;;;3.60;;
13816;SDS011;6979;52.116;5.286;2023-07-31T12:46:51;4.80;;;4.40;;
13816;SDS011;6979;52.116;5.286;2023-07-31T12:49:18;3.73;;;3.43;;
13816;SDS011;6979;52.116;5.286;2023-07-31T12:51:45;4.10;;;3.80;;
13816;SDS011;6979;52.116;5.286;2023-07-31T12:54:12;4.80;;;4.50;;
13816;SDS011;6979;52.116;5.286;2023-07-31T12:56:39;4.07;;;3.77;;
13816;SDS011;6979;52.116;5.286;2023-07-31T12:59:08;4.97;;;4.47;;
13816;SDS011;6979;52.116;5.286;2023-07-31T13:01:35;4.50;;;4.20;;
13816;SDS011;6979;52.116;5.286;2023-07-31T13:04:02;4.43;;;4.07;;
13816;SDS011;6979;52.116;5.286;2023-07-31T13:06:28;4.13;;;3.93;;
13816;SDS011;6979;52.116;5.286;2023-07-31T13:08:58;3.83;;;3.63;;
13816;SDS011;6979;52.116;5.286;2023-07-31T13:11:25;3.70;;;3.50;;
13816;SDS011;6979;52.116;5.286;2023-07-31T13:13:52;4.10;;;3.80;;
13816;SDS011;6979;52.116;5.286;2023-07-31T13:16:20;4.33;;;3.93;;
13816;SDS011;6979;52.116;5.286;2023-07-31T13:18:47;4.07;;;3.83;;
13816;SDS011;6979;52.116;5.286;2023-07-31T13:21:14;3.83;;;3.53;;
13816;SDS011;6979;52.116;5.286;2023-07-31T13:23:41;3.23;;;3.03;;
13816;SDS011;6979;52.116;5.286;2023-07-31T13:26:08;3.40;;;3.17;;
13816;SDS011;6979;52.116;5.286;2023-07-31T13:28:35;3.30;;;3.10;;
13816;SDS011;6979;52.116;5.286;2023-07-31T13:31:04;3.30;;;3.00;;
13816;SDS011;6979;52.116;5.286;2023-07-31T13:33:32;3.00;;;2.80;;
13816;SDS011;6979;52.116;5.286;2023-07-31T13:36:01;2.70;;;2.60;;
13816;SDS011;6979;52.116;5.286;2023-07-31T13:38:28;3.10;;;2.97;;
13816;SDS011;6979;52.116;5.286;2023-07-31T13:40:55;2.20;;;2.10;;
13816;SDS011;6979;52.116;5.286;2023-07-31T13:43:23;1.60;;;1.60;;
13816;SDS011;6979;52.116;5.286;2023-07-31T13:45:51;1.30;;;1.30;;
13816;SDS011;6979;52.116;5.286;2023-07-31T13:48:20;1.23;;;1.23;;
13816;SDS011;6979;52.116;5.286;2023-07-31T13:50:48;1.80;;;1.70;;
13816;SDS011;6979;52.116;5.286;2023-07-31T13:53:15;1.77;;;1.67;;
13816;SDS011;6979;52.116;5.286;2023-07-31T13:55:42;2.00;;;1.90;;
13816;SDS011;6979;52.116;5.286;2023-07-31T13:58:11;2.70;;;2.10;;
13816;SDS011;6979;52.116;5.286;2023-07-31T14:00:37;2.10;;;2.00;;
13816;SDS011;6979;52.116;5.286;2023-07-31T14:03:08;2.07;;;1.97;;
13816;SDS011;6979;52.116;5.286;2023-07-31T14:05:35;1.97;;;1.67;;
13816;SDS011;6979;52.116;5.286;2023-07-31T14:08:03;1.50;;;1.50;;
13816;SDS011;6979;52.116;5.286;2023-07-31T14:10:30;2.17;;;2.07;;
13816;SDS011;6979;52.116;5.286;2023-07-31T14:13:04;2.73;;;2.60;;
13816;SDS011;6979;52.116;5.286;2023-07-31T14:15:31;2.23;;;2.13;;
13816;SDS011;6979;52.116;5.286;2023-07-31T14:18:01;2.70;;;2.47;;
13816;SDS011;6979;52.116;5.286;2023-07-31T14:20:28;2.70;;;2.50;;
13816;SDS011;6979;52.116;5.286;2023-07-31T14:22:56;2.40;;;2.30;;
13816;SDS011;6979;52.116;5.286;2023-07-31T14:25:24;2.60;;;2.50;;
13816;SDS011;6979;52.116;5.286;2023-07-31T14:27:51;4.43;;;4.13;;
13816;SDS011;6979;52.116;5.286;2023-07-31T14:30:21;4.90;;;4.53;;
13816;SDS011;6979;52.116;5.286;2023-07-31T14:32:48;5.70;;;5.37;;
13816;SDS011;6979;52.116;5.286;2023-07-31T14:35:15;6.53;;;6.10;;
13816;SDS011;6979;52.116;5.286;2023-07-31T14:37:42;6.93;;;6.37;;
13816;SDS011;6979;52.116;5.286;2023-07-31T14:40:11;6.90;;;6.40;;
13816;SDS011;6979;52.116;5.286;2023-07-31T14:42:40;6.57;;;6.17;;
13816;SDS011;6979;52.116;5.286;2023-07-31T14:45:07;6.63;;;6.23;;
13816;SDS011;6979;52.116;5.286;2023-07-31T14:47:35;5.97;;;5.60;;
13816;SDS011;6979;52.116;5.286;2023-07-31T14:50:03;6.40;;;6.00;;
13816;SDS011;6979;52.116;5.286;2023-07-31T14:52:30;6.23;;;5.83;;
13816;SDS011;6979;52.116;5.286;2023-07-31T14:54:57;6.30;;;5.80;;
13816;SDS011;6979;52.116;5.286;2023-07-31T14:57:24;5.57;;;5.27;;
13816;SDS011;6979;52.116;5.286;2023-07-31T14:59:52;4.87;;;4.57;;
13816;SDS011;6979;52.116;5.286;2023-07-31T15:02:19;4.93;;;4.63;;
13816;SDS011;6979;52.116;5.286;2023-07-31T15:04:50;4.97;;;4.67;;
13816;SDS011;6979;52.116;5.286;2023-07-31T15:07:17;5.33;;;4.93;;